• Join FlightAware (Why Join?)
  • Login
  • US Flag 
04:07AM EDT


 

Airport Tracker/Info


-or-


 

Live Flight TrackerFlight Track Log ✈ RLI811 ✈ 01-Jul-2013 ✈ FWCM / CMK - KHYA

Flight Track Log - Related Links

Times and Time Zones

All times are in EDT time to prevent confusion due to time zone crossing. See the RLI811 flight status page for this flight to view local times or setup timezone preferences in your user account.

Time Position Orientation Groundspeed Altitude Reporting Facility
EDT Latitude Longitude Course Direction KTS MPH feet Rate Location/Type
05:27AM 41.3167 -73.5500 310° West 139 160 2,700  Level New York TRACON
05:28AM 41.2833 -73.5667 201° Southwest 146 168 3,700 960 Climbing New York TRACON
05:29AM 41.3000 -73.5167 66° East 161 185 4,700 900 Climbing New York TRACON
05:30AM 41.3167 -73.4667 66° East 159 183 5,600 840 Climbing New York TRACON
05:31AM -14.1094 34.8862 310° West  Level Estimated
05:31AM 41.3500 -73.4167 48° Northeast 162 186 6,400  Level New York TRACON
05:32AM -14.0765 34.8452 310° West  Level Estimated
05:32AM 41.3667 -73.3500 72° East 175 201 6,900  Level New York TRACON
05:34AM 41.3558 -73.2386 97° East  Level FlightAware Approximate
05:35AM 41.3667 -73.1500 97° East 196 226 6,900  Level New York TRACON
05:36AM 41.3667 -73.0667 90° East 202 232 6,900  Level New York TRACON
05:38AM 41.3667 -72.9333 90° East 195 224 6,900  Level New York TRACON
05:39AM 41.3667 -72.8500 90° East 199 229 6,900  Level New York TRACON
05:41AM 41.3500 -72.7000 98° East 199 229 6,900  Level New York TRACON
05:43AM 41.3147 -72.5908 78° East  Level FlightAware Approximate
05:46AM 41.3458 -72.3517 79° East 221 254 6,900  Level Boston Center
05:47AM 41.3708 -72.2492 72° East 221 254 6,900  Level Boston Center
05:48AM 41.3853 -72.1772 75° East 211 243 6,900  Level Boston Center
05:49AM 41.3994 -72.1081 75° East 207 238 6,900  Level Boston Center
05:50AM 41.3880 -72.1193 78° East  Level FlightAware Approximate
05:50AM 41.4056 -72.0361 84° East 209 241 7,000  Level Boston Center
05:51AM 41.3982 -72.0518 79° East  Level FlightAware Approximate
05:51AM 41.4219 -71.9556 75° East 204 235 7,000  Level Boston Center
05:52AM 41.4592 -71.8806 56° Northeast 214 246 7,000  Level Boston Center
05:53AM 41.4964 -71.8303 45° Northeast 214 246 7,000  Level Boston Center
05:54AM 41.5397 -71.7633 49° Northeast 215 247 7,000  Level Boston Center
05:55AM 41.5706 -71.7019 56° Northeast 215 247 7,000  Level Boston Center
05:56AM 41.6036 -71.6350 57° Northeast 213 245 7,000  Level Boston Center
05:57AM 41.6383 -71.5733 53° Northeast 212 244 7,000  Level Boston Center
05:58AM 41.6733 -71.5064 55° Northeast 214 246 7,000  Level Boston Center
05:59AM 41.7042 -71.4475 55° Northeast 214 246 7,000  Level Boston Center
06:00AM 41.7181 -71.3806 74° East 213 245 7,000  Level Boston Center
06:01AM 41.7194 -71.3081 89° East 213 245 7,000 -300 Level Boston Center
06:02AM 41.7103 -71.2247 98° East 217 250 6,500 -420 Descending Boston Center
06:03AM 41.6989 -71.1472 101° East 218 251 6,200 -480 Descending Boston Center
06:04AM 41.6958 -71.0667 93° East 220 253 5,600 -600 Descending Boston Center
06:06AM 41.6803 -70.9598 101° East  Level FlightAware Approximate
06:13AM 41.6667 -70.5280 90° East  Level FlightAware Approximate
06:14AM 41.6667 -70.4664 90° East  Level FlightAware Approximate
06:15AM 41.6667 -70.4048 90° East  Level FlightAware Approximate
06:16AM 41.6667 -70.3432 90° East  Level FlightAware Approximate
06:17AM 41.6667 -70.2816 90° East  Level FlightAware Approximate
06:18AM 41.6693 -70.2804 90° East  Level Estimated
06:19AM 41.6693 -70.2804 90° East  Level Estimated
06:20AM 41.6693 -70.2804 90° East  Level Estimated
06:21AM 41.6693 -70.2804 90° East  Level Estimated
06:22AM 41.6693 -70.2804 90° East  Level Estimated
06:23AM 41.6693 -70.2804 90° East  Level Estimated
06:24AM 41.6693 -70.2804 90° East  Level Estimated
06:25AM 41.6693 -70.2804 90° East  Level Estimated
06:26AM 41.6693 -70.2804 90° East  Level Estimated